Time Latitude Longitude Accuracy (66% radius in meters) Altitude (meters) Speed (km/hour) Bearing (degrees) Battery (%) GPS flag
08:20:12 55.602164 37.899105 10 178 0.28358665108681 162.99291992188 45 1 delete
08:19:01 55.602192 37.898949 5 173 1.7086962461472 111.31577301025 45 1 delete
08:18:54 55.602219 37.898770 5 174 2.1624009609222 108.16394805908 45 1 delete
08:18:48 55.602257 37.898617 10 170 3.0368545055389 148.26048278809 45 1 delete
08:18:45 55.602325 37.898511 5 171 3.5232253074646 148.11907958984 45 1 delete
08:18:43 55.602403 37.898393 10 180 3.4971277713776 141.72645568848 45 1 delete
08:18:40 55.602507 37.898228 10 181 3.268497467041 135.86293029785 45 1 delete
08:18:37 55.602586 37.898048 10 180 3.0572457313538 125.2034072876 45 1 delete
08:18:32 55.602624 37.897871 10 178 3.4511506557465 111.37698364258 45 1 delete
08:18:29 55.602645 37.897702 10 178 3.4354135990143 113.30484008789 45 1 delete
08:18:26 55.602669 37.897528 10 178 3.3369281291962 117.67306518555 45 1 delete
08:18:23 55.602712 37.897323 10 177 3.1212403774261 123.05444335938 45 1 delete
08:18:20 55.602759 37.897133 5 177 2.8844876289368 111.64998626709 45 1 delete
08:18:17 55.602791 37.896914 10 177 2.4749834537506 113.18250274658 45 1 delete
08:18:14 55.602789 37.896746 10 177 1.9118500947952 104.05542755127 45 1 delete
08:18:08 55.602714 37.896645 5 174 1.6528965234756 25.82622718811 45 1 delete
08:18:03 55.602620 37.896603 10 181 1.8030641078949 20.779668807983 45 1 delete
08:17:55 55.602409 37.896491 5 168 1.7719638347626 13.296427726746 45 1 delete
08:17:50 55.602342 37.896341 5 172 1.9302657842636 30.066339492798 45 1 delete
08:17:46 55.602270 37.896231 10 173 1.8984702825546 53.189056396484 45 1 delete
08:17:40 55.602184 37.896127 10 172 1.7290958166122 17.093746185303 45 1 delete
08:17:34 55.602081 37.896048 10 171 1.688418507576 74.574836730957 45 1 delete
08:17:31 55.601979 37.896063 10 179 1.9654890298843 320.98544311523 45 1 delete
08:17:28 55.601880 37.896055 10 179 2.0375831127167 23.38179397583 45 1 delete
08:17:24 55.601794 37.895989 5 179 2.2138195037842 27.88597869873 45 1 delete
08:17:21 55.601679 37.895917 10 183 1.9891533851624 13.520451545715 45 1 delete
08:17:17 55.601564 37.895826 10 181 1.8370428085327 28.694683074951 45 1 delete
08:17:13 55.601464 37.895714 5 185 1.8257417678833 36.828365325928 45 1 delete
08:17:09 55.601371 37.895617 5 182 1.7647970914841 52.536418914795 45 1 delete
08:17:04 55.601275 37.895516 5 181 1.5184514522552 37.814250946045 45 1 delete
08:17:00 55.601189 37.895456 10 178 1.2845650911331 0.85289019346237 45 1 delete
08:16:55 55.601095 37.895468 10 174 0.86673492193222 320.09866333008 45 1 delete
08:16:39 55.601024 37.895367 10 172 1.9459699392319 64.735778808594 45 1 delete
08:16:35 55.601027 37.895177 5 182 2.0680954456329 127.51473236084 45 1 delete
08:16:31 55.601076 37.895034 10 178 2.1831881999969 110.18182373047 45 1 delete
08:16:27 55.601122 37.894880 5 184 2.1360769271851 109.59306335449 45 1 delete
08:16:24 55.601133 37.894693 10 186 2.166312456131 97.64421081543 45 1 delete
08:16:20 55.601186 37.894492 5 183 2.3300621509552 113.09056091309 45 1 delete
08:16:16 55.601242 37.894341 10 186 2.4195566177368 123.17832946777 45 1 delete
08:16:12 55.601293 37.894200 5 184 2.6222734451294 114.82835388184 45 1 delete
08:16:07 55.601353 37.894020 10 175 2.9112904071808 128.2211151123 45 1 delete
08:16:03 55.601429 37.893880 10 176 3.0729556083679 143.03387451172 45 1 delete
08:16:00 55.601508 37.893748 5 177 3.0659773349762 140.3404083252 45 1 delete
08:15:57 55.601574 37.893606 5 175 2.9940128326416 121.19863128662 45 1 delete
08:15:54 55.601618 37.893418 5 179 2.7463362216949 115.15191650391 45 1 delete
08:15:51 55.601651 37.893234 5 176 2.6184639930725 117.10445404053 45 1 delete
08:15:48 55.601699 37.893089 5 176 2.4835922718048 123.43252563477 45 1 delete
08:15:45 55.601766 37.892920 10 180 2.444167137146 129.03120422363 45 1 delete
08:15:41 55.601838 37.892765 5 178 2.5206296443939 143.13624572754 45 1 delete
08:15:36 55.601902 37.892625 5 172 2.6681864261627 146.68711853027 45 1 delete